createdAt,value
2023-03-22T00:01:49.471Z,99989.63
2023-03-22T00:04:19.194Z,99991.86
2023-03-22T00:06:50.162Z,99991.33
2023-03-22T00:09:18.093Z,99992.09
2023-03-22T00:11:50.387Z,99993.67
2023-03-22T00:14:18.171Z,99996.05
2023-03-22T00:16:47.242Z,99993.11
2023-03-22T00:19:18.699Z,99993.64
2023-03-22T00:21:47.247Z,99987.63
2023-03-22T00:24:20.625Z,99984.91
2023-03-22T00:26:52.455Z,99984.54
2023-03-22T00:29:23.643Z,99984.41
2023-03-22T00:31:57.667Z,99978.11
2023-03-22T00:34:32.188Z,99981.53
2023-03-22T00:37:01.997Z,99980.30
2023-03-22T00:39:31.962Z,99980.27
2023-03-22T00:42:01.738Z,99978.20
2023-03-22T00:44:55.254Z,99983.17
2023-03-22T00:47:36.007Z,99981.04
2023-03-22T00:50:13.404Z,99980.44
2023-03-22T00:52:46.916Z,99980.15
2023-03-22T00:55:19.734Z,99973.06
2023-03-22T00:57:48.542Z,99981.13
2023-03-22T01:00:20.266Z,99981.20
2023-03-22T01:02:48.858Z,99977.85
2023-03-22T01:05:25.661Z,99980.36
2023-03-22T01:07:56.388Z,99982.96
2023-03-22T01:10:34.522Z,99985.20
2023-03-22T01:13:04.415Z,99984.96
2023-03-22T01:15:34.306Z,99989.45
2023-03-22T01:18:05.494Z,99993.27
2023-03-22T01:20:46.806Z,99992.23
2023-03-22T01:23:18.719Z,99996.73
2023-03-22T01:25:50.292Z,99994.13
2023-03-22T01:28:25.206Z,99997.20
2023-03-22T01:31:01.633Z,99997.22
2023-03-22T01:33:31.265Z,100001.66
2023-03-22T01:35:58.960Z,100000.23
2023-03-22T01:38:31.660Z,99998.46
2023-03-22T01:41:03.568Z,100000.60
2023-03-22T01:43:37.600Z,100007.92
2023-03-22T01:46:06.429Z,100009.23
2023-03-22T01:48:45.427Z,100009.80
2023-03-22T01:51:19.494Z,100015.55
2023-03-22T01:54:18.489Z,100013.56
2023-03-22T01:56:50.478Z,100015.27
2023-03-22T01:59:27.354Z,100017.17
2023-03-22T02:02:07.713Z,100020.40
2023-03-22T02:04:41.067Z,100021.35
2023-03-22T02:07:15.014Z,100020.23
2023-03-22T02:09:47.626Z,100023.39
2023-03-22T02:12:18.641Z,100020.88
2023-03-22T02:15:12.064Z,100021.73
2023-03-22T02:18:11.880Z,100023.74
2023-03-22T02:21:02.649Z,100022.60
2023-03-22T02:23:54.888Z,100023.21
2023-03-22T02:26:41.057Z,100024.76
2023-03-22T02:29:25.873Z,100025.96
2023-03-22T02:32:16.062Z,100029.59
2023-03-22T02:35:05.624Z,100029.64
2023-03-22T02:38:03.234Z,100036.39
2023-03-22T02:40:45.337Z,100035.08
2023-03-22T02:43:38.060Z,100033.52
2023-03-22T02:46:12.851Z,100040.39
2023-03-22T02:49:27.090Z,100042.65
2023-03-22T02:51:59.874Z,100045.00
2023-03-22T02:54:44.501Z,100045.35
2023-03-22T02:57:20.649Z,100047.79
2023-03-22T02:59:49.422Z,100052.14
2023-03-22T03:02:17.993Z,100054.48
2023-03-22T03:04:48.759Z,100056.89
2023-03-22T03:07:21.347Z,100059.61
2023-03-22T03:09:50.287Z,100059.88
2023-03-22T03:12:25.787Z,100068.68
2023-03-22T03:14:56.908Z,100070.33
2023-03-22T03:17:57.817Z,100068.59
2023-03-22T03:21:09.306Z,100071.70
2023-03-22T03:23:53.771Z,100074.59
2023-03-22T03:26:30.765Z,100075.80
2023-03-22T03:29:42.211Z,100080.08
2023-03-22T03:32:19.649Z,100081.26
2023-03-22T03:34:52.549Z,100078.87
2023-03-22T03:37:23.925Z,100081.44
2023-03-22T03:40:04.883Z,100080.45
2023-03-22T03:42:33.203Z,100079.06
2023-03-22T03:45:00.439Z,100072.85
2023-03-22T03:47:30.635Z,100077.34
2023-03-22T03:49:59.047Z,100071.89
2023-03-22T03:52:32.574Z,100071.04
2023-03-22T03:55:02.725Z,100070.02
2023-03-22T03:57:38.081Z,100066.66
2023-03-22T04:00:09.749Z,100067.19
2023-03-22T04:02:56.739Z,100067.60
2023-03-22T04:05:40.964Z,100065.13
2023-03-22T04:08:10.578Z,100070.31
2023-03-22T04:10:40.565Z,100068.98
2023-03-22T04:13:13.334Z,100072.55
2023-03-22T04:15:42.224Z,100071.38
2023-03-22T04:18:19.255Z,100078.87
2023-03-22T04:20:49.632Z,100084.91
2023-03-22T04:23:27.852Z,100092.25
2023-03-22T04:25:59.693Z,100094.05
2023-03-22T04:28:37.015Z,100099.41
2023-03-22T04:31:09.436Z,100102.69
2023-03-22T04:34:05.070Z,100104.23
2023-03-22T04:37:08.317Z,100108.10
2023-03-22T04:39:50.904Z,100107.10
2023-03-22T04:42:35.754Z,100112.94
2023-03-22T04:45:13.104Z,100113.11
2023-03-22T04:47:42.947Z,100117.77
2023-03-22T04:50:12.725Z,100114.89
2023-03-22T04:52:50.897Z,100119.94
2023-03-22T04:55:21.953Z,100123.65
2023-03-22T04:57:54.160Z,100129.39
2023-03-22T05:00:29.595Z,100131.73
2023-03-22T05:02:58.998Z,100130.92
2023-03-22T05:05:55.451Z,100127.98
2023-03-22T05:08:25.919Z,100132.38
2023-03-22T05:10:55.581Z,100132.95
2023-03-22T05:13:26.865Z,100136.55
2023-03-22T05:16:06.797Z,100134.50
2023-03-22T05:18:44.886Z,100137.41
2023-03-22T05:21:15.107Z,100145.16
2023-03-22T05:23:51.403Z,100149.67
2023-03-22T05:26:25.730Z,100155.31
2023-03-22T05:28:57.869Z,100155.35
2023-03-22T05:31:41.831Z,100154.80
2023-03-22T05:34:14.820Z,100159.45
2023-03-22T05:36:45.979Z,100157.44
2023-03-22T05:39:30.246Z,100159.30
2023-03-22T05:42:01.163Z,100160.41
2023-03-22T05:44:28.609Z,100161.68
2023-03-22T05:47:08.859Z,100168.08
2023-03-22T05:49:58.095Z,100169.44
2023-03-22T05:52:27.331Z,100169.63
2023-03-22T05:55:17.143Z,100177.29
2023-03-22T05:57:47.259Z,100176.45
2023-03-22T06:00:19.937Z,100179.35
2023-03-22T06:03:21.222Z,100184.08
2023-03-22T06:06:02.041Z,100179.14
2023-03-22T06:08:39.924Z,100180.56
2023-03-22T06:11:13.713Z,100182.66
2023-03-22T06:13:42.583Z,100182.04
2023-03-22T06:16:12.032Z,100183.20
2023-03-22T06:18:41.642Z,100189.45
2023-03-22T06:21:17.384Z,100190.28
2023-03-22T06:23:47.213Z,100194.76
2023-03-22T06:26:19.452Z,100193.89
2023-03-22T06:28:56.945Z,100195.05
2023-03-22T06:31:26.966Z,100193.17
2023-03-22T06:34:01.239Z,100194.93
2023-03-22T06:36:46.652Z,100199.91
2023-03-22T06:39:26.444Z,100206.02
2023-03-22T06:41:55.372Z,100203.79
2023-03-22T06:44:28.966Z,100210.30
2023-03-22T06:47:11.339Z,100211.77
2023-03-22T06:49:47.965Z,100216.14
2023-03-22T06:52:27.369Z,100223.40
2023-03-22T06:55:01.571Z,100227.80
2023-03-22T06:57:38.513Z,100224.15
2023-03-22T07:00:10.633Z,100223.30
2023-03-22T07:02:41.629Z,100227.50
2023-03-22T07:05:41.051Z,100228.10
2023-03-22T07:08:10.878Z,100230.98
2023-03-22T07:10:50.932Z,100233.05
2023-03-22T07:13:21.957Z,100237.18
2023-03-22T07:15:51.923Z,100237.73
2023-03-22T07:18:41.447Z,100235.11
2023-03-22T07:21:15.256Z,100238.00
2023-03-22T07:23:49.856Z,100239.33
2023-03-22T07:26:20.190Z,100242.98
2023-03-22T07:28:54.040Z,100247.37
2023-03-22T07:31:46.342Z,100244.89
2023-03-22T07:34:27.179Z,100246.58
2023-03-22T07:37:17.232Z,100244.59
2023-03-22T07:39:58.152Z,100241.53
2023-03-22T07:42:30.849Z,100241.38
2023-03-22T07:45:22.976Z,100243.77
2023-03-22T07:48:35.995Z,100234.64
2023-03-22T07:51:40.158Z,100231.92
2023-03-22T07:54:12.643Z,100234.49
2023-03-22T07:56:45.172Z,100231.63
2023-03-22T07:59:20.543Z,100231.46
2023-03-22T08:01:53.249Z,100231.55
2023-03-22T08:04:31.448Z,100234.14
2023-03-22T08:07:14.146Z,100229.97
2023-03-22T08:09:49.211Z,100232.72
2023-03-22T08:12:23.272Z,100231.02
2023-03-22T08:15:23.429Z,100233.85
2023-03-22T08:18:12.119Z,100231.29
2023-03-22T08:20:43.968Z,100232.80
2023-03-22T08:23:40.486Z,100231.11
2023-03-22T08:26:50.143Z,100233.06
2023-03-22T08:29:41.102Z,100236.44
2023-03-22T08:32:17.550Z,100237.34
2023-03-22T08:34:49.158Z,100235.50
2023-03-22T08:37:26.947Z,100236.66
2023-03-22T08:39:56.845Z,100240.55
2023-03-22T08:42:38.612Z,100237.11
2023-03-22T08:45:12.613Z,100234.49
2023-03-22T08:47:52.320Z,100238.05
2023-03-22T08:50:24.294Z,100239.86
2023-03-22T08:53:02.956Z,100238.35
2023-03-22T08:55:44.357Z,100237.00
2023-03-22T08:58:26.443Z,100236.97
2023-03-22T09:01:26.510Z,100235.55
2023-03-22T09:04:20.199Z,100235.99
2023-03-22T09:06:55.523Z,100232.73
2023-03-22T09:09:26.433Z,100234.79
2023-03-22T09:11:54.600Z,100234.05
2023-03-22T09:14:26.462Z,100231.70
2023-03-22T09:17:00.800Z,100230.28
2023-03-22T09:19:29.414Z,100227.97
2023-03-22T09:21:58.173Z,100222.86
2023-03-22T09:24:42.186Z,100228.00
2023-03-22T09:27:12.396Z,100224.30
2023-03-22T09:29:41.842Z,100220.79
2023-03-22T09:32:17.500Z,100218.82
2023-03-22T09:34:55.071Z,100226.88
2023-03-22T09:37:30.377Z,100223.69
2023-03-22T09:40:00.501Z,100227.42
2023-03-22T09:42:42.554Z,100225.55
2023-03-22T09:45:17.863Z,100229.09
2023-03-22T09:47:50.715Z,100228.66
2023-03-22T09:50:32.362Z,100228.77
2023-03-22T09:53:02.701Z,100230.50
2023-03-22T09:55:39.072Z,100229.89
2023-03-22T09:58:25.890Z,100229.60
2023-03-22T10:01:05.859Z,100225.58
2023-03-22T10:04:03.571Z,100227.12
2023-03-22T10:07:12.908Z,100223.50
2023-03-22T10:10:17.920Z,100228.48
2023-03-22T10:13:00.503Z,100228.21
2023-03-22T10:15:38.894Z,100222.75
2023-03-22T10:18:09.491Z,100226.27
2023-03-22T10:21:11.510Z,100220.21
2023-03-22T10:23:47.214Z,100212.27
2023-03-22T10:27:43.435Z,100218.17
2023-03-22T10:33:14.012Z,100215.96
2023-03-22T10:35:53.225Z,100210.20
2023-03-22T10:38:27.211Z,100210.86
2023-03-22T10:41:06.351Z,100212.48
2023-03-22T10:43:41.061Z,100213.00
2023-03-22T10:46:17.308Z,100211.02
2023-03-22T10:48:49.136Z,100204.03
2023-03-22T10:51:36.538Z,100203.80
2023-03-22T10:54:12.051Z,100200.75
2023-03-22T10:56:41.528Z,100203.52
2023-03-22T10:59:53.155Z,100204.82
2023-03-22T11:02:31.318Z,100200.42
2023-03-22T11:05:03.062Z,100202.38
2023-03-22T11:07:43.715Z,100199.27
2023-03-22T11:10:15.679Z,100198.72
2023-03-22T11:13:10.857Z,100198.48
2023-03-22T11:15:49.558Z,100193.70
2023-03-22T11:18:20.731Z,100192.63
2023-03-22T11:20:58.348Z,100194.48
2023-03-22T11:23:32.082Z,100193.83
2023-03-22T11:26:08.181Z,100189.19
2023-03-22T11:34:48.259Z,100182.77
2023-03-22T11:37:19.671Z,100180.16
2023-03-22T11:40:02.345Z,100177.52
2023-03-22T11:42:37.099Z,100178.39
2023-03-22T11:45:12.417Z,100177.14
2023-03-22T11:47:54.830Z,100172.34
2023-03-22T11:50:33.308Z,100173.80
2023-03-22T11:53:07.552Z,100178.81
2023-03-22T11:55:40.387Z,100178.15
2023-03-22T11:58:39.368Z,100178.33
2023-03-22T12:01:13.117Z,100173.66
2023-03-22T12:03:44.129Z,100175.30
2023-03-22T12:06:21.918Z,100173.04
2023-03-22T12:09:07.107Z,100172.29
2023-03-22T12:11:53.434Z,100170.25
2023-03-22T12:14:54.551Z,100171.97
2023-03-22T12:17:36.380Z,100170.02
2023-03-22T12:20:51.524Z,100165.63
2023-03-22T12:23:51.947Z,100161.88
2023-03-22T12:26:30.382Z,100166.50
2023-03-22T12:29:06.802Z,100161.84
2023-03-22T12:31:52.859Z,100158.80
2023-03-22T12:34:32.463Z,100158.03
2023-03-22T12:37:10.967Z,100151.71
2023-03-22T12:40:01.223Z,100155.04
2023-03-22T12:43:08.019Z,100151.55
2023-03-22T12:45:53.383Z,100147.81
2023-03-22T12:48:35.628Z,100143.91
2023-03-22T12:51:13.904Z,100145.02
2023-03-22T12:53:53.917Z,100146.70
2023-03-22T12:56:44.062Z,100147.70
2023-03-22T12:59:29.042Z,100148.65
2023-03-22T13:02:10.209Z,100148.39
2023-03-22T13:04:53.836Z,100148.94
2023-03-22T13:07:36.114Z,100144.17
2023-03-22T13:10:32.700Z,100135.84
2023-03-22T13:13:24.549Z,100137.72
2023-03-22T13:15:59.873Z,100134.20
2023-03-22T13:18:54.257Z,100132.84
2023-03-22T13:21:29.886Z,100133.64
2023-03-22T13:24:10.607Z,100132.14
2023-03-22T13:27:20.194Z,100135.98
2023-03-22T13:29:54.304Z,100136.27
2023-03-22T13:32:33.571Z,100136.44
2023-03-22T13:35:23.949Z,100135.58
2023-03-22T13:38:29.206Z,100136.58
2023-03-22T13:41:28.287Z,100135.60
2023-03-22T13:44:20.513Z,100130.69
2023-03-22T13:47:02.010Z,100129.41
2023-03-22T13:49:55.213Z,100127.49
2023-03-22T13:52:33.717Z,100134.20
2023-03-22T13:55:04.905Z,100132.18
2023-03-22T13:57:50.352Z,100134.08
2023-03-22T14:00:41.558Z,100133.66
2023-03-22T14:03:23.296Z,100130.67
2023-03-22T14:06:01.009Z,100134.67
2023-03-22T14:08:40.233Z,100132.17
2023-03-22T14:11:46.519Z,100135.70
2023-03-22T14:14:29.125Z,100134.48
2023-03-22T14:17:30.039Z,100131.05
2023-03-22T14:20:00.178Z,100127.66
